createdAt,value
2023-02-06T00:01:31.654Z,98845.20
2023-02-06T00:03:59.751Z,98856.60
2023-02-06T00:06:28.192Z,98854.80
2023-02-06T00:08:56.348Z,98856.40
2023-02-06T00:11:25.057Z,98861.60
2023-02-06T00:13:53.567Z,98859.40
2023-02-06T00:16:26.446Z,98857.00
2023-02-06T00:18:56.385Z,98849.80
2023-02-06T00:21:26.212Z,98859.60
2023-02-06T00:23:56.339Z,98858.20
2023-02-06T00:26:24.746Z,98854.20
2023-02-06T00:28:52.925Z,98853.00
2023-02-06T00:31:21.112Z,98846.40
2023-02-06T00:33:49.196Z,98855.00
2023-02-06T00:36:17.233Z,98855.60
2023-02-06T00:38:45.618Z,98852.60
2023-02-06T00:41:15.229Z,98851.40
2023-02-06T00:43:43.763Z,98857.20
2023-02-06T00:46:11.919Z,98856.20
2023-02-06T00:48:40.153Z,98855.40
2023-02-06T00:51:08.134Z,98860.80
2023-02-06T00:53:38.670Z,98865.00
2023-02-06T00:56:06.929Z,98863.60
2023-02-06T00:58:35.013Z,98865.80
2023-02-06T01:01:04.399Z,98860.00
2023-02-06T01:03:32.569Z,98858.80
2023-02-06T01:06:00.750Z,98854.80
2023-02-06T01:08:28.918Z,98852.60
2023-02-06T01:10:57.187Z,98863.60
2023-02-06T01:13:25.169Z,98860.40
2023-02-06T01:15:53.260Z,98858.60
2023-02-06T01:18:21.307Z,98860.00
2023-02-06T01:20:49.671Z,98863.00
2023-02-06T01:23:17.845Z,98868.60
2023-02-06T01:25:46.228Z,98865.20
2023-02-06T01:28:14.344Z,98865.00
2023-02-06T01:30:42.509Z,98858.20
2023-02-06T01:33:10.570Z,98866.40
2023-02-06T01:35:38.489Z,98866.00
2023-02-06T01:38:08.724Z,98869.00
2023-02-06T01:40:36.799Z,98875.00
2023-02-06T01:43:08.915Z,98870.80
2023-02-06T01:45:44.637Z,98870.80
2023-02-06T01:48:18.144Z,98875.20
2023-02-06T01:50:52.165Z,98879.00
2023-02-06T01:53:20.199Z,98883.40
2023-02-06T01:55:48.986Z,98886.20
2023-02-06T01:58:19.990Z,98887.80
2023-02-06T02:00:48.091Z,98893.60
2023-02-06T02:03:16.063Z,98891.60
2023-02-06T02:05:44.758Z,98890.20
2023-02-06T02:08:17.607Z,98894.20
2023-02-06T02:10:45.700Z,98892.80
2023-02-06T02:13:14.083Z,98891.20
2023-02-06T02:15:52.501Z,98895.80
2023-02-06T02:18:46.171Z,98890.80
2023-02-06T02:21:48.547Z,98887.40
2023-02-06T02:24:34.548Z,98890.80
2023-02-06T02:27:11.519Z,98888.40
2023-02-06T02:29:58.187Z,98888.60
2023-02-06T02:32:58.045Z,98892.20
2023-02-06T02:35:34.562Z,98892.80
2023-02-06T02:38:13.989Z,98893.40
2023-02-06T02:41:11.793Z,98892.60
2023-02-06T02:43:45.389Z,98898.60
2023-02-06T02:46:36.125Z,98894.20
2023-02-06T02:49:22.254Z,98902.60
2023-02-06T02:51:50.698Z,98903.40
2023-02-06T02:54:18.941Z,98901.60
2023-02-06T02:56:48.058Z,98912.60
2023-02-06T02:59:24.320Z,98913.40
2023-02-06T03:01:56.281Z,98914.00
2023-02-06T03:04:35.247Z,98919.20
2023-02-06T03:07:13.470Z,98918.40
2023-02-06T03:09:59.342Z,98913.40
2023-02-06T03:12:48.242Z,98918.20
2023-02-06T03:15:27.064Z,98922.20
2023-02-06T03:18:08.730Z,98918.60
2023-02-06T03:20:37.604Z,98927.60
2023-02-06T03:23:09.673Z,98928.20
2023-02-06T03:25:43.228Z,98934.80
2023-02-06T03:28:19.216Z,98930.80
2023-02-06T03:30:50.544Z,98936.60
2023-02-06T03:33:23.728Z,98930.20
2023-02-06T03:35:52.377Z,98927.80
2023-02-06T03:38:20.892Z,98925.80
2023-02-06T03:40:48.864Z,98934.60
2023-02-06T03:43:18.930Z,98942.40
2023-02-06T03:45:51.995Z,98938.20
2023-02-06T03:48:25.064Z,98941.60
2023-02-06T03:50:54.487Z,98944.20
2023-02-06T03:53:22.834Z,98951.80
2023-02-06T03:55:50.873Z,98949.40
2023-02-06T03:58:18.932Z,98946.40
2023-02-06T04:00:47.063Z,98946.80
2023-02-06T04:03:15.128Z,98949.20
2023-02-06T04:05:43.103Z,98943.20
2023-02-06T04:08:11.152Z,98943.20
2023-02-06T04:10:39.437Z,98940.20
2023-02-06T04:13:07.453Z,98943.40
2023-02-06T04:15:35.735Z,98946.40
2023-02-06T04:18:05.170Z,98943.60
2023-02-06T04:20:34.264Z,98945.60
2023-02-06T04:23:02.278Z,98949.80
2023-02-06T04:25:30.330Z,98951.60
2023-02-06T04:27:59.359Z,98945.60
2023-02-06T04:30:27.377Z,98941.60
2023-02-06T04:32:55.455Z,98948.20
2023-02-06T04:35:23.496Z,98943.00
2023-02-06T04:37:51.604Z,98931.20
2023-02-06T04:40:19.683Z,98937.20
2023-02-06T04:42:47.741Z,98935.80
2023-02-06T04:45:15.912Z,98944.00
2023-02-06T04:47:43.990Z,98946.60
2023-02-06T04:50:12.461Z,98946.00
2023-02-06T04:52:40.540Z,98943.20
2023-02-06T04:55:09.018Z,98945.20
2023-02-06T04:57:37.661Z,98944.40
2023-02-06T05:00:06.371Z,98940.20
2023-02-06T05:02:39.831Z,98943.60
2023-02-06T05:05:09.189Z,98940.40
2023-02-06T05:07:37.256Z,98946.60
2023-02-06T05:10:05.428Z,98947.80
2023-02-06T05:12:33.390Z,98946.60
2023-02-06T05:15:01.370Z,98949.60
2023-02-06T05:17:29.429Z,98950.40
2023-02-06T05:19:58.521Z,98955.40
2023-02-06T05:22:26.704Z,98952.20
2023-02-06T05:24:54.672Z,98943.80
2023-02-06T05:27:22.884Z,98950.40
2023-02-06T05:29:51.018Z,98950.00
2023-02-06T05:32:19.596Z,98953.80
2023-02-06T05:34:47.876Z,98955.20
2023-02-06T05:37:15.872Z,98947.60
2023-02-06T05:39:44.069Z,98954.00
2023-02-06T05:42:12.089Z,98960.00
2023-02-06T05:44:40.165Z,98955.00
2023-02-06T05:47:08.345Z,98956.80
2023-02-06T05:49:36.509Z,98951.60
2023-02-06T05:52:04.683Z,98959.60
2023-02-06T05:54:32.633Z,98960.00
2023-02-06T05:57:00.577Z,98960.60
2023-02-06T05:59:28.589Z,98957.60
2023-02-06T06:01:56.976Z,98963.60
2023-02-06T06:04:25.385Z,98963.40
2023-02-06T06:06:53.439Z,98966.40
2023-02-06T06:09:21.586Z,98967.40
2023-02-06T06:11:51.333Z,98963.40
2023-02-06T06:14:19.265Z,98966.60
2023-02-06T06:16:47.340Z,98962.40
2023-02-06T06:19:15.777Z,98955.80
2023-02-06T06:21:44.113Z,98963.80
2023-02-06T06:24:12.158Z,98958.00
2023-02-06T06:26:43.232Z,98956.80
2023-02-06T06:29:11.282Z,98956.00
2023-02-06T06:31:39.491Z,98957.20
2023-02-06T06:34:07.468Z,98964.80
2023-02-06T06:36:35.687Z,98967.40
2023-02-06T06:39:03.801Z,98975.20
2023-02-06T06:41:31.968Z,98976.40
2023-02-06T06:44:00.447Z,98974.20
2023-02-06T06:46:28.663Z,98981.40
2023-02-06T06:48:59.225Z,98980.40
2023-02-06T06:51:30.592Z,98982.80
2023-02-06T06:54:00.314Z,98983.20
2023-02-06T06:56:28.537Z,98980.00
2023-02-06T06:58:56.626Z,98978.20
2023-02-06T07:01:24.719Z,98975.40
2023-02-06T07:03:52.741Z,98983.60
2023-02-06T07:06:20.739Z,98985.80
2023-02-06T07:08:48.645Z,98993.60
2023-02-06T07:11:17.808Z,98995.20
2023-02-06T07:13:45.858Z,98990.20
2023-02-06T07:16:13.973Z,98995.00
2023-02-06T07:18:43.130Z,99001.60
2023-02-06T07:21:11.350Z,99003.40
2023-02-06T07:23:40.827Z,99000.40
2023-02-06T07:26:09.925Z,98999.40
2023-02-06T07:28:42.341Z,98994.40
2023-02-06T07:31:10.506Z,98989.60
2023-02-06T07:33:38.528Z,98997.60
2023-02-06T07:36:10.698Z,98993.00
2023-02-06T07:38:38.635Z,98991.00
2023-02-06T07:41:06.658Z,98992.00
2023-02-06T07:43:34.724Z,98995.60
2023-02-06T07:46:04.241Z,99002.00
2023-02-06T07:48:32.390Z,98997.60
2023-02-06T07:51:07.836Z,98999.80
2023-02-06T07:53:36.117Z,98996.80
2023-02-06T07:56:14.455Z,99000.80
2023-02-06T07:58:42.432Z,99005.80
2023-02-06T08:01:10.964Z,99009.00
2023-02-06T08:03:39.147Z,99007.60
2023-02-06T08:06:11.833Z,99005.00
2023-02-06T08:08:39.790Z,98998.80
2023-02-06T08:11:08.730Z,99005.00
2023-02-06T08:13:36.877Z,99004.60
2023-02-06T08:16:28.804Z,99004.40
2023-02-06T08:18:57.988Z,99016.20
2023-02-06T08:21:29.120Z,99012.80
2023-02-06T08:23:58.178Z,99017.80
2023-02-06T08:26:27.597Z,99018.20
2023-02-06T08:28:56.142Z,99021.60
2023-02-06T08:31:29.003Z,99016.20
2023-02-06T08:33:57.305Z,99020.80
2023-02-06T08:36:25.930Z,99017.40
2023-02-06T08:38:54.014Z,99011.00
2023-02-06T08:41:24.884Z,99015.60
2023-02-06T08:43:54.969Z,99013.00
2023-02-06T08:46:24.469Z,99020.00
2023-02-06T08:48:57.063Z,99015.20
2023-02-06T08:51:28.087Z,99014.20
2023-02-06T08:54:00.901Z,99008.20
2023-02-06T08:56:29.673Z,99008.80
2023-02-06T08:59:01.832Z,99015.20
2023-02-06T09:01:31.268Z,99019.40
2023-02-06T09:04:01.693Z,99012.20
2023-02-06T09:06:29.949Z,99014.00
2023-02-06T09:09:00.974Z,99015.00
2023-02-06T09:11:30.065Z,99019.80
2023-02-06T09:13:59.060Z,99026.60
2023-02-06T09:16:28.052Z,99030.40
2023-02-06T09:18:58.167Z,99032.00
2023-02-06T09:21:26.248Z,99032.80
2023-02-06T09:23:59.435Z,99032.60
2023-02-06T09:26:31.305Z,99036.00
2023-02-06T09:29:00.589Z,99034.80
2023-02-06T09:31:33.091Z,99035.40
2023-02-06T09:34:01.177Z,99030.00
2023-02-06T09:36:30.439Z,99026.00
2023-02-06T09:38:58.716Z,99028.20
2023-02-06T09:41:26.590Z,99031.20
2023-02-06T09:43:59.118Z,99026.40
2023-02-06T09:46:31.514Z,99024.00
2023-02-06T09:49:02.249Z,99023.40
2023-02-06T09:51:56.037Z,99024.40
2023-02-06T09:55:05.982Z,99016.00
2023-02-06T09:57:47.590Z,99015.00
2023-02-06T10:00:38.839Z,99003.80
2023-02-06T10:03:42.513Z,99010.20
2023-02-06T10:06:21.224Z,99009.20
2023-02-06T10:09:18.281Z,99007.60
2023-02-06T10:12:16.740Z,99004.20
2023-02-06T10:14:48.912Z,98999.00
2023-02-06T10:17:31.605Z,99002.40
2023-02-06T10:20:14.951Z,99004.40
2023-02-06T10:22:45.041Z,99004.00
2023-02-06T10:25:29.625Z,99005.20
2023-02-06T10:27:59.642Z,98995.20
2023-02-06T10:30:45.155Z,98993.40
2023-02-06T10:33:25.273Z,99001.20
2023-02-06T10:36:03.491Z,98999.20
2023-02-06T10:38:51.918Z,98998.80
2023-02-06T10:41:35.166Z,98995.20
2023-02-06T10:44:11.555Z,98994.20
2023-02-06T10:46:50.844Z,98993.80
2023-02-06T10:49:23.247Z,98994.20
2023-02-06T10:51:53.689Z,98990.80
2023-02-06T10:54:36.624Z,98992.40
2023-02-06T10:57:05.395Z,98994.00
2023-02-06T10:59:35.716Z,98994.00
2023-02-06T11:02:12.750Z,98993.20
2023-02-06T11:04:44.092Z,98992.20
2023-02-06T11:07:39.683Z,98989.80
2023-02-06T11:10:08.342Z,98987.80
2023-02-06T11:12:40.165Z,98988.00
2023-02-06T11:15:20.953Z,98985.00
2023-02-06T11:17:49.257Z,98983.20
2023-02-06T11:20:24.097Z,98985.20
2023-02-06T11:22:53.652Z,98986.40
2023-02-06T11:25:27.138Z,98991.00
2023-02-06T11:27:56.104Z,98994.80
2023-02-06T11:30:36.472Z,98993.60
2023-02-06T11:33:20.004Z,98999.80
2023-02-06T11:35:54.985Z,98991.20
2023-02-06T11:38:24.549Z,98994.60
2023-02-06T11:41:05.489Z,98984.80
2023-02-06T11:43:46.679Z,98991.60
2023-02-06T11:46:35.538Z,98994.20
2023-02-06T11:49:20.371Z,98990.20
2023-02-06T11:51:55.413Z,98990.80
2023-02-06T11:54:35.117Z,98988.60
2023-02-06T11:57:19.844Z,98988.80
2023-02-06T11:59:52.278Z,98984.20
2023-02-06T12:02:31.281Z,98979.20
2023-02-06T12:05:17.705Z,98977.40
2023-02-06T12:08:00.775Z,98969.00
2023-02-06T12:10:33.183Z,98968.40
2023-02-06T12:13:07.289Z,98962.20
2023-02-06T12:15:47.537Z,98960.60
2023-02-06T12:18:37.154Z,98967.20
2023-02-06T12:21:13.720Z,98966.20
2023-02-06T12:23:52.980Z,98973.60
2023-02-06T12:26:23.382Z,98968.80
2023-02-06T12:29:15.878Z,98976.00
2023-02-06T12:31:50.597Z,98966.20
2023-02-06T12:34:25.074Z,98965.40
2023-02-06T12:37:00.810Z,98967.20
2023-02-06T12:39:32.030Z,98970.80
2023-02-06T12:42:03.303Z,98961.40
2023-02-06T12:44:41.782Z,98961.00
2023-02-06T12:47:21.679Z,98963.40
2023-02-06T12:49:53.560Z,98962.00
2023-02-06T12:52:41.495Z,98962.20
2023-02-06T12:55:12.627Z,98965.20
2023-02-06T12:57:40.881Z,98964.00
2023-02-06T13:00:55.348Z,98971.00
2023-02-06T13:03:35.698Z,98971.60
2023-02-06T13:06:10.336Z,98975.80
2023-02-06T13:08:41.986Z,98975.80
2023-02-06T13:11:17.503Z,98974.00
2023-02-06T13:13:45.685Z,98972.60
2023-02-06T13:16:13.740Z,98975.60
2023-02-06T13:18:41.983Z,98977.80
2023-02-06T13:21:15.257Z,98974.00
2023-02-06T13:24:06.821Z,98973.60
2023-02-06T13:26:53.775Z,98974.80
2023-02-06T13:29:25.635Z,98976.00
2023-02-06T13:32:20.334Z,98980.60
2023-02-06T13:34:53.831Z,98976.00
2023-02-06T13:37:34.254Z,98980.00
2023-02-06T13:40:24.276Z,98984.20
2023-02-06T13:43:07.561Z,98981.20
2023-02-06T13:45:51.714Z,98985.20
2023-02-06T13:48:47.678Z,98988.40
2023-02-06T13:51:50.386Z,98991.00
2023-02-06T13:54:30.861Z,98992.20
2023-02-06T13:57:36.987Z,98997.40
2023-02-06T14:00:15.888Z,98996.40
2023-02-06T14:02:51.148Z,98995.20
2023-02-06T14:05:23.847Z,98995.80
2023-02-06T14:08:11.055Z,98995.80
2023-02-06T14:11:36.371Z,98999.80
2023-02-06T14:14:28.601Z,99005.40
2023-02-06T14:17:29.180Z,99004.20
2023-02-06T14:20:08.363Z,99006.20
2023-02-06T14:22:44.727Z,99008.40
2023-02-06T14:25:58.468Z,99003.00
2023-02-06T14:28:48.572Z,99010.80
2023-02-06T14:31:52.632Z,99002.80
2023-02-06T14:34:26.983Z,99006.80
2023-02-06T14:37:20.557Z,99002.20
2023-02-06T14:39:55.212Z,99004.00
2023-02-06T14:42:37.480Z,99006.60
2023-02-06T14:45:23.883Z,99007.00
2023-02-06T14:47:52.677Z,99004.00
2023-02-06T14:50:30.156Z,99007.40
2023-02-06T14:53:09.351Z,99006.80
2023-02-06T14:55:41.590Z,99004.20
2023-02-06T14:58:24.842Z,99000.40
2023-02-06T15:00:57.244Z,99003.40
2023-02-06T15:03:26.068Z,99010.20
2023-02-06T15:06:07.388Z,99012.40
2023-02-06T15:08:35.398Z,99013.40
2023-02-06T15:11:15.093Z,99014.60
2023-02-06T15:13:49.611Z,99013.20
2023-02-06T15:16:17.826Z,99019.00
2023-02-06T15:18:45.908Z,99020.20
2023-02-06T15:21:16.091Z,99014.20
2023-02-06T15:24:02.602Z,99019.40
2023-02-06T15:26:36.513Z,99020.60
2023-02-06T15:29:05.948Z,99022.00
2023-02-06T15:31:34.050Z,99025.40
2023-02-06T15:34:02.097Z,99026.00
2023-02-06T15:36:33.764Z,99028.40
2023-02-06T15:39:07.850Z,99024.20
2023-02-06T15:41:35.872Z,99026.00
2023-02-06T15:44:22.257Z,99028.80
2023-02-06T15:46:50.600Z,99028.60
2023-02-06T15:49:20.024Z,99036.20
2023-02-06T15:51:53.643Z,99040.20
2023-02-06T15:54:22.920Z,99038.40
2023-02-06T15:56:54.815Z,99040.60
2023-02-06T15:59:25.341Z,99046.60
2023-02-06T16:01:54.681Z,99048.20
2023-02-06T16:04:29.628Z,99054.00
2023-02-06T16:07:19.441Z,99052.80
2023-02-06T16:09:53.921Z,99054.00
2023-02-06T16:12:22.105Z,99057.60
2023-02-06T16:15:00.418Z,99060.60
2023-02-06T16:17:33.572Z,99059.60
2023-02-06T16:20:33.415Z,99063.60
2023-02-06T16:23:20.381Z,99078.00
2023-02-06T16:25:58.880Z,99073.40
2023-02-06T16:28:27.644Z,99076.80
2023-02-06T16:31:00.399Z,99078.60
2023-02-06T16:33:38.377Z,99074.40
2023-02-06T16:36:06.951Z,99083.80
2023-02-06T16:38:35.072Z,99079.20
2023-02-06T16:41:03.450Z,99081.60
2023-02-06T16:43:31.524Z,99086.40
2023-02-06T16:46:02.347Z,99087.60
2023-02-06T16:48:30.524Z,99091.80
2023-02-06T16:50:58.570Z,99100.40
2023-02-06T16:53:26.569Z,99095.20
2023-02-06T16:55:54.491Z,99101.80
2023-02-06T16:58:23.558Z,99107.40
2023-02-06T17:00:51.595Z,99106.20
2023-02-06T17:03:19.537Z,99102.20
2023-02-06T17:05:48.585Z,99099.20
2023-02-06T17:08:23.778Z,99100.40
2023-02-06T17:10:51.870Z,99099.00
2023-02-06T17:13:23.535Z,99099.00
2023-02-06T17:15:54.631Z,99105.00
2023-02-06T17:18:23.611Z,99102.00
2023-02-06T17:20:52.916Z,99098.00
2023-02-06T17:23:21.376Z,99101.20
2023-02-06T17:25:49.928Z,99106.20
2023-02-06T17:28:19.593Z,99103.80
2023-02-06T17:30:49.100Z,99105.80
2023-02-06T17:33:17.939Z,99109.40
2023-02-06T17:35:46.410Z,99108.40
2023-02-06T17:38:14.443Z,99113.20
2023-02-06T17:40:42.486Z,99109.80
2023-02-06T17:43:11.034Z,99109.20
2023-02-06T17:45:39.728Z,99105.00
2023-02-06T17:48:08.097Z,99105.00
2023-02-06T17:50:37.597Z,99108.40
2023-02-06T17:53:07.213Z,99117.80
2023-02-06T17:55:35.390Z,99108.60
2023-02-06T17:58:04.160Z,99109.00
2023-02-06T18:00:32.506Z,99118.60
2023-02-06T18:03:00.726Z,99113.00
2023-02-06T18:05:29.065Z,99114.80
2023-02-06T18:07:57.110Z,99112.80
2023-02-06T18:10:25.414Z,99117.20
2023-02-06T18:12:53.510Z,99116.80
2023-02-06T18:15:21.590Z,99115.80
2023-02-06T18:17:49.716Z,99122.00
2023-02-06T18:20:17.936Z,99121.80
2023-02-06T18:22:47.137Z,99128.20
2023-02-06T18:25:15.620Z,99128.00
2023-02-06T18:27:46.091Z,99129.20
2023-02-06T18:30:14.956Z,99117.60
2023-02-06T18:32:43.144Z,99121.80
2023-02-06T18:35:11.129Z,99119.20
2023-02-06T18:37:39.168Z,99121.60
2023-02-06T18:40:07.927Z,99122.60
2023-02-06T18:42:54.718Z,99120.40
2023-02-06T18:45:24.591Z,99113.40
2023-02-06T18:47:52.598Z,99116.40
2023-02-06T18:50:21.897Z,99112.80
2023-02-06T18:52:50.325Z,99114.20
2023-02-06T18:55:18.602Z,99116.20
2023-02-06T18:57:46.686Z,99118.60
2023-02-06T19:00:15.765Z,99115.60
2023-02-06T19:02:43.748Z,99121.40
2023-02-06T19:05:11.961Z,99115.00
2023-02-06T19:07:40.056Z,99115.20
2023-02-06T19:10:16.202Z,99117.20
2023-02-06T19:12:44.843Z,99119.80
2023-02-06T19:15:14.474Z,99123.60
2023-02-06T19:17:42.617Z,99123.40
2023-02-06T19:20:11.804Z,99123.20
2023-02-06T19:22:40.088Z,99129.00
2023-02-06T19:25:11.362Z,99128.60
2023-02-06T19:27:40.077Z,99128.20
2023-02-06T19:30:09.193Z,99129.60
2023-02-06T19:32:37.243Z,99134.20
2023-02-06T19:35:05.693Z,99135.60
2023-02-06T19:37:33.621Z,99135.40
2023-02-06T19:40:01.592Z,99136.40
2023-02-06T19:42:29.698Z,99135.00
2023-02-06T19:44:57.736Z,99138.00
2023-02-06T19:47:25.837Z,99144.00
2023-02-06T19:49:53.808Z,99140.20
2023-02-06T19:52:21.732Z,99145.20
2023-02-06T19:54:49.858Z,99145.80
2023-02-06T19:57:19.450Z,99143.40
2023-02-06T19:59:47.463Z,99147.40
2023-02-06T20:02:15.733Z,99141.20
2023-02-06T20:04:45.295Z,99147.40
2023-02-06T20:07:13.255Z,99153.20
2023-02-06T20:09:42.442Z,99144.00
2023-02-06T20:12:12.677Z,99148.60
2023-02-06T20:14:40.731Z,99150.00
2023-02-06T20:17:08.690Z,99157.60
2023-02-06T20:19:36.743Z,99156.60
2023-02-06T20:22:04.985Z,99159.00
2023-02-06T20:24:33.121Z,99166.60
2023-02-06T20:27:04.388Z,99168.00
2023-02-06T20:29:35.131Z,99169.20
2023-02-06T20:32:04.150Z,99173.00
2023-02-06T20:34:32.283Z,99174.80
2023-02-06T20:37:00.313Z,99179.00
2023-02-06T20:39:28.784Z,99181.80
2023-02-06T20:41:56.909Z,99179.60
2023-02-06T20:44:24.991Z,99176.20
2023-02-06T20:46:53.770Z,99178.80
2023-02-06T20:49:24.395Z,99185.20
2023-02-06T20:51:53.216Z,99181.40
2023-02-06T20:54:21.415Z,99184.60
2023-02-06T20:56:51.100Z,99193.40
2023-02-06T20:59:19.721Z,99193.20
2023-02-06T21:01:50.271Z,99191.00
2023-02-06T21:04:20.064Z,99193.60
2023-02-06T21:06:50.019Z,99194.40
2023-02-06T21:09:18.463Z,99194.00
2023-02-06T21:11:48.059Z,99196.60
2023-02-06T21:14:16.241Z,99200.40
2023-02-06T21:16:44.372Z,99201.40
2023-02-06T21:19:13.778Z,99202.40
2023-02-06T21:21:45.592Z,99201.20
2023-02-06T21:24:15.808Z,99204.20
2023-02-06T21:26:43.797Z,99196.80
2023-02-06T21:29:13.434Z,99195.00
2023-02-06T21:31:41.999Z,99197.40
2023-02-06T21:34:19.731Z,99193.80
2023-02-06T21:36:48.331Z,99195.40
2023-02-06T21:39:19.221Z,99195.20
2023-02-06T21:41:47.751Z,99194.60
2023-02-06T21:44:15.762Z,99198.40
2023-02-06T21:46:46.516Z,99195.00
2023-02-06T21:49:14.708Z,99201.20
2023-02-06T21:51:42.797Z,99203.60
2023-02-06T21:54:10.956Z,99208.20
2023-02-06T21:56:39.152Z,99207.40
2023-02-06T21:59:07.565Z,99206.00
2023-02-06T22:01:35.843Z,99211.60
2023-02-06T22:04:03.995Z,99212.20
2023-02-06T22:06:32.369Z,99216.40
2023-02-06T22:09:07.601Z,99213.00
2023-02-06T22:11:37.040Z,99208.60
2023-02-06T22:14:07.555Z,99212.00
2023-02-06T22:16:35.993Z,99212.00
2023-02-06T22:19:05.142Z,99213.20
2023-02-06T22:21:34.178Z,99210.60
2023-02-06T22:24:06.687Z,99211.60
2023-02-06T22:26:38.652Z,99212.80
2023-02-06T22:29:08.204Z,99209.40
2023-02-06T22:31:36.415Z,99221.80
2023-02-06T22:34:04.578Z,99223.40
2023-02-06T22:36:33.076Z,99224.00
2023-02-06T22:39:03.368Z,99230.20
2023-02-06T22:41:31.393Z,99227.20
2023-02-06T22:43:59.379Z,99231.60
2023-02-06T22:46:29.843Z,99233.80
2023-02-06T22:48:58.237Z,99235.40
2023-02-06T22:51:26.742Z,99234.60
2023-02-06T22:53:55.073Z,99230.80
2023-02-06T22:56:36.864Z,99226.00
2023-02-06T22:59:05.035Z,99225.00
2023-02-06T23:01:36.050Z,99222.00
2023-02-06T23:04:05.274Z,99220.20
2023-02-06T23:06:33.740Z,99223.40
2023-02-06T23:09:02.411Z,99216.80
2023-02-06T23:11:31.909Z,99220.20
2023-02-06T23:14:01.427Z,99221.00
2023-02-06T23:16:29.753Z,99226.20
2023-02-06T23:18:58.108Z,99224.80
2023-02-06T23:21:27.307Z,99229.60
2023-02-06T23:23:56.750Z,99228.80
2023-02-06T23:26:24.710Z,99222.20
2023-02-06T23:28:52.798Z,99226.00
2023-02-06T23:31:22.850Z,99224.40
2023-02-06T23:33:51.140Z,99221.80
2023-02-06T23:36:21.380Z,99222.40
2023-02-06T23:38:49.451Z,99224.40
2023-02-06T23:41:19.717Z,99209.80
2023-02-06T23:43:55.228Z,99212.00
2023-02-06T23:46:23.611Z,99209.00
2023-02-06T23:48:51.852Z,99209.60
2023-02-06T23:51:20.839Z,99203.00
2023-02-06T23:53:49.084Z,99204.40
2023-02-06T23:56:21.238Z,99203.00
2023-02-06T23:58:49.469Z,99197.20
